createdAt,value
2023-05-20T00:00:06.991Z,54.45
2023-05-20T00:02:11.718Z,54.80
2023-05-20T00:04:15.569Z,54.70
2023-05-20T00:06:19.181Z,54.70
2023-05-20T00:08:22.701Z,55.06
2023-05-20T00:10:26.128Z,55.46
2023-05-20T00:12:29.622Z,55.38
2023-05-20T00:14:32.985Z,55.37
2023-05-20T00:16:36.820Z,55.38
2023-05-20T00:18:41.754Z,55.43
2023-05-20T00:20:45.187Z,55.59
2023-05-20T00:22:48.682Z,55.55
2023-05-20T00:24:52.191Z,55.79
2023-05-20T00:26:55.776Z,56.15
2023-05-20T00:28:59.220Z,55.96
2023-05-20T00:31:02.726Z,55.73
2023-05-20T00:33:06.656Z,55.78
2023-05-20T00:35:11.739Z,55.75
2023-05-20T00:37:15.215Z,56.03
2023-05-20T00:39:18.547Z,55.90
2023-05-20T00:41:22.696Z,55.90
2023-05-20T00:43:26.729Z,55.82
2023-05-20T00:45:30.786Z,55.84
2023-05-20T00:47:36.577Z,55.82
2023-05-20T00:49:40.398Z,55.86
2023-05-20T00:51:45.285Z,55.86
2023-05-20T00:53:48.923Z,55.89
2023-05-20T00:55:52.664Z,55.51
2023-05-20T00:57:56.580Z,56.03
2023-05-20T01:00:00.191Z,56.03
2023-05-20T01:02:04.253Z,56.11
2023-05-20T01:04:07.709Z,55.92
2023-05-20T01:06:11.260Z,55.91
2023-05-20T01:08:16.745Z,56.13
2023-05-20T01:10:20.440Z,56.11
2023-05-20T01:12:28.191Z,56.31
2023-05-20T01:14:37.109Z,56.74
2023-05-20T01:16:40.831Z,56.85
2023-05-20T01:18:45.078Z,56.85
2023-05-20T01:20:52.735Z,56.98
2023-05-20T01:22:59.027Z,57.17
2023-05-20T01:25:03.180Z,57.48
2023-05-20T01:27:10.711Z,57.41
2023-05-20T01:29:14.132Z,57.43
2023-05-20T01:31:22.961Z,57.72
2023-05-20T01:33:27.389Z,57.85
2023-05-20T01:35:31.465Z,58.03
2023-05-20T01:37:38.002Z,58.37
2023-05-20T01:39:43.925Z,58.57
2023-05-20T01:41:49.065Z,58.50
2023-05-20T01:43:52.572Z,58.72
2023-05-20T01:45:56.359Z,58.92
2023-05-20T01:47:59.905Z,59.21
2023-05-20T01:50:03.527Z,59.61
2023-05-20T01:52:07.093Z,59.88
2023-05-20T01:54:10.752Z,60.32
2023-05-20T01:56:16.464Z,60.66
2023-05-20T01:58:19.969Z,60.85
2023-05-20T02:00:23.438Z,61.04
2023-05-20T02:02:27.047Z,61.28
2023-05-20T02:04:30.536Z,61.65
2023-05-20T02:06:34.011Z,61.75
2023-05-20T02:08:37.412Z,61.89
2023-05-20T02:10:40.799Z,62.03
2023-05-20T02:12:46.342Z,62.30
2023-05-20T02:14:50.524Z,62.47
2023-05-20T02:16:54.198Z,62.84
2023-05-20T02:18:58.731Z,62.95
2023-05-20T02:21:03.964Z,63.10
2023-05-20T02:23:07.613Z,63.19
2023-05-20T02:25:11.702Z,63.33
2023-05-20T02:27:15.089Z,63.47
2023-05-20T02:29:22.151Z,63.65
2023-05-20T02:31:27.078Z,64.05
2023-05-20T02:33:31.604Z,63.98
2023-05-20T02:35:36.300Z,64.24
2023-05-20T02:37:40.388Z,64.51
2023-05-20T02:39:43.682Z,64.76
2023-05-20T02:41:47.225Z,64.94
2023-05-20T02:43:50.653Z,64.87
2023-05-20T02:45:55.454Z,65.12
2023-05-20T02:47:58.844Z,65.36
2023-05-20T02:50:02.294Z,65.53
2023-05-20T02:52:06.678Z,65.59
2023-05-20T02:54:10.018Z,65.83
2023-05-20T02:56:13.367Z,66.05
2023-05-20T02:58:17.367Z,66.35
2023-05-20T03:00:20.815Z,66.35
2023-05-20T03:02:26.532Z,66.62
2023-05-20T03:04:29.932Z,66.78
2023-05-20T03:06:34.769Z,67.02
2023-05-20T03:08:39.732Z,67.05
2023-05-20T03:10:43.137Z,67.27
2023-05-20T03:12:46.457Z,67.39
2023-05-20T03:14:50.556Z,67.53
2023-05-20T03:16:55.509Z,67.79
2023-05-20T03:19:00.376Z,68.00
2023-05-20T03:21:04.272Z,68.23
2023-05-20T03:23:07.902Z,68.34
2023-05-20T03:25:13.410Z,68.63
2023-05-20T03:27:16.804Z,68.74
2023-05-20T03:29:20.415Z,68.97
2023-05-20T03:31:23.920Z,69.11
2023-05-20T03:33:27.418Z,69.39
2023-05-20T03:35:32.840Z,69.47
2023-05-20T03:37:36.888Z,69.57
2023-05-20T03:39:40.609Z,69.79
2023-05-20T03:41:43.966Z,69.87
2023-05-20T03:43:47.346Z,70.10
2023-05-20T03:45:50.860Z,70.11
2023-05-20T03:47:54.287Z,70.51
2023-05-20T03:49:58.732Z,70.47
2023-05-20T03:52:04.099Z,70.76
2023-05-20T03:54:07.805Z,70.78
2023-05-20T03:56:11.239Z,71.01
2023-05-20T03:58:16.711Z,71.04
2023-05-20T04:00:20.133Z,71.33
2023-05-20T04:02:25.803Z,71.33
2023-05-20T04:04:29.430Z,71.48
2023-05-20T04:06:33.076Z,71.54
2023-05-20T04:08:38.669Z,71.54
2023-05-20T04:10:43.230Z,71.69
2023-05-20T04:12:48.220Z,71.85
2023-05-20T04:14:52.782Z,72.00
2023-05-20T04:16:57.482Z,72.05
2023-05-20T04:19:02.792Z,72.04
2023-05-20T04:21:06.811Z,72.30
2023-05-20T04:23:10.195Z,72.33
2023-05-20T04:25:15.249Z,72.20
2023-05-20T04:27:18.944Z,72.26
2023-05-20T04:29:23.154Z,72.14
2023-05-20T04:31:27.495Z,72.16
2023-05-20T04:33:30.936Z,72.31
2023-05-20T04:35:35.355Z,72.17
2023-05-20T04:37:42.526Z,72.21
2023-05-20T04:39:48.382Z,72.32
2023-05-20T04:41:55.110Z,72.30
2023-05-20T04:44:00.669Z,72.33
2023-05-20T04:46:06.161Z,72.35
2023-05-20T04:48:09.888Z,72.39
2023-05-20T04:50:14.940Z,72.62
2023-05-20T04:52:18.284Z,72.71
2023-05-20T04:54:21.685Z,72.67
2023-05-20T04:56:26.192Z,72.63
2023-05-20T04:58:31.837Z,72.58
2023-05-20T05:00:35.878Z,72.69
2023-05-20T05:02:40.282Z,72.68
2023-05-20T05:04:43.759Z,73.02
2023-05-20T05:06:49.391Z,73.06
2023-05-20T05:08:53.091Z,73.04
2023-05-20T05:10:56.733Z,73.10
2023-05-20T05:13:00.230Z,73.03
2023-05-20T05:15:06.064Z,73.22
2023-05-20T05:17:09.571Z,73.19
2023-05-20T05:19:13.709Z,73.16
2023-05-20T05:21:17.910Z,73.25
2023-05-20T05:23:23.612Z,73.14
2023-05-20T05:25:27.728Z,73.12
2023-05-20T05:27:31.131Z,73.23
2023-05-20T05:29:35.520Z,73.17
2023-05-20T05:31:40.300Z,73.11
2023-05-20T05:33:44.144Z,72.91
2023-05-20T05:35:47.559Z,73.00
2023-05-20T05:37:51.174Z,72.91
2023-05-20T05:39:54.533Z,72.95
2023-05-20T05:41:57.950Z,72.94
2023-05-20T05:44:01.840Z,72.86
2023-05-20T05:46:06.752Z,72.79
2023-05-20T05:48:11.819Z,72.58
2023-05-20T05:50:15.594Z,72.55
2023-05-20T05:52:19.106Z,72.57
2023-05-20T05:54:22.415Z,72.34
2023-05-20T05:56:26.390Z,72.02
2023-05-20T05:58:29.746Z,71.96
2023-05-20T06:00:33.117Z,71.84
2023-05-20T06:02:36.666Z,71.51
2023-05-20T06:04:41.797Z,71.42
2023-05-20T06:06:45.128Z,71.14
2023-05-20T06:08:48.657Z,70.95
2023-05-20T06:10:52.684Z,70.71
2023-05-20T06:12:56.496Z,70.32
2023-05-20T06:15:00.219Z,69.97
2023-05-20T06:17:04.088Z,69.79
2023-05-20T06:19:09.501Z,69.46
2023-05-20T06:21:14.588Z,69.38
2023-05-20T06:23:17.964Z,69.20
2023-05-20T06:25:31.242Z,68.98
2023-05-20T06:27:34.686Z,68.68
2023-05-20T06:29:38.133Z,68.37
2023-05-20T06:31:41.516Z,68.05
2023-05-20T06:33:44.941Z,67.79
2023-05-20T06:35:49.642Z,67.58
2023-05-20T06:37:55.407Z,67.26
2023-05-20T06:39:58.912Z,67.22
2023-05-20T06:42:02.224Z,67.30
2023-05-20T06:44:07.738Z,67.33
2023-05-20T06:46:29.234Z,67.05
2023-05-20T06:48:39.995Z,67.07
2023-05-20T06:50:44.206Z,66.55
2023-05-20T06:52:47.786Z,66.45
2023-05-20T06:54:53.155Z,66.10
2023-05-20T06:56:56.618Z,66.04
2023-05-20T06:59:00.687Z,65.66
2023-05-20T07:01:04.611Z,65.33
2023-05-20T07:03:08.606Z,64.54
2023-05-20T07:05:12.290Z,63.92
2023-05-20T07:07:17.368Z,63.56
2023-05-20T07:09:21.986Z,63.38
2023-05-20T07:11:26.836Z,63.18
2023-05-20T07:13:31.790Z,62.84
2023-05-20T07:15:35.579Z,62.66
2023-05-20T07:17:39.259Z,62.30
2023-05-20T07:19:42.689Z,61.59
2023-05-20T07:21:46.125Z,61.03
2023-05-20T07:24:10.746Z,60.96
2023-05-20T07:26:14.175Z,60.76
2023-05-20T07:28:19.117Z,60.55
2023-05-20T07:30:22.558Z,60.41
2023-05-20T07:32:45.940Z,60.33
2023-05-20T07:34:49.434Z,59.95
2023-05-20T07:36:53.609Z,59.70
2023-05-20T07:39:04.224Z,59.34
2023-05-20T07:41:12.488Z,59.20
2023-05-20T07:43:16.458Z,58.90
2023-05-20T07:45:21.644Z,58.61
2023-05-20T07:47:25.472Z,58.57
2023-05-20T07:49:28.991Z,58.15
2023-05-20T07:51:32.382Z,58.19
2023-05-20T07:53:36.334Z,58.12
2023-05-20T07:55:39.770Z,58.05
2023-05-20T07:57:44.795Z,57.68
2023-05-20T07:59:48.576Z,57.47
2023-05-20T08:01:54.359Z,57.39
2023-05-20T08:03:58.519Z,57.17
2023-05-20T08:06:02.258Z,56.93
2023-05-20T08:08:06.793Z,56.63
2023-05-20T08:10:22.040Z,56.29
2023-05-20T08:12:25.807Z,56.35
2023-05-20T08:14:29.362Z,56.46
2023-05-20T08:16:32.901Z,56.54
2023-05-20T08:18:38.560Z,56.24
2023-05-20T08:20:42.337Z,55.82
2023-05-20T08:22:45.698Z,56.25
2023-05-20T08:24:49.022Z,55.45
2023-05-20T08:26:52.663Z,55.26
2023-05-20T08:28:58.474Z,55.42
2023-05-20T08:31:03.350Z,55.33
2023-05-20T08:33:08.297Z,55.31
2023-05-20T08:35:13.510Z,55.45
2023-05-20T08:37:17.723Z,54.85
2023-05-20T08:39:21.647Z,54.32
2023-05-20T08:41:25.830Z,54.17
2023-05-20T08:43:32.816Z,54.53
2023-05-20T08:45:40.155Z,54.66
2023-05-20T08:47:48.923Z,54.40
2023-05-20T08:49:52.306Z,54.43
2023-05-20T08:51:57.406Z,53.71
2023-05-20T08:54:01.110Z,53.48
2023-05-20T08:56:04.500Z,53.25
2023-05-20T08:58:07.954Z,53.02
2023-05-20T09:00:13.523Z,52.72
2023-05-20T09:02:16.977Z,52.41
2023-05-20T09:04:20.818Z,52.10
2023-05-20T09:06:24.223Z,51.46
2023-05-20T09:08:29.105Z,51.67
2023-05-20T09:10:33.320Z,50.29
2023-05-20T09:12:36.810Z,49.91
2023-05-20T09:14:40.160Z,49.52
2023-05-20T09:16:44.363Z,49.60
2023-05-20T09:18:48.070Z,49.45
2023-05-20T09:20:53.034Z,48.89
2023-05-20T09:23:00.171Z,48.92
2023-05-20T09:25:05.471Z,49.45
2023-05-20T09:27:10.433Z,49.26
2023-05-20T09:29:13.770Z,48.73
2023-05-20T09:31:17.783Z,49.05
2023-05-20T09:33:22.063Z,49.06
2023-05-20T09:35:26.398Z,48.60
2023-05-20T09:37:31.318Z,47.97
2023-05-20T09:39:41.132Z,47.75
2023-05-20T09:41:55.441Z,46.53
2023-05-20T09:43:59.741Z,47.14
2023-05-20T09:46:03.586Z,47.16
2023-05-20T09:48:10.942Z,46.26
2023-05-20T09:50:16.406Z,46.41
2023-05-20T09:52:21.396Z,46.14
2023-05-20T09:54:25.733Z,45.90
2023-05-20T09:56:30.221Z,45.99
2023-05-20T09:58:36.988Z,46.01
2023-05-20T10:00:40.840Z,46.59
2023-05-20T10:02:45.960Z,46.71
2023-05-20T10:04:52.960Z,46.60
2023-05-20T10:07:30.546Z,46.91
2023-05-20T10:09:57.415Z,47.00
2023-05-20T10:12:18.825Z,46.82
2023-05-20T10:14:35.344Z,47.21
2023-05-20T10:16:46.779Z,47.14
2023-05-20T10:18:57.322Z,47.48
2023-05-20T10:21:01.374Z,47.30
2023-05-20T10:23:05.644Z,47.72
2023-05-20T10:25:13.202Z,47.91
2023-05-20T10:27:19.174Z,48.10
2023-05-20T10:29:25.544Z,48.57
2023-05-20T10:31:28.865Z,48.39
2023-05-20T10:33:42.988Z,48.46
2023-05-20T10:35:51.895Z,48.38
2023-05-20T10:37:56.857Z,48.31
2023-05-20T10:40:09.819Z,48.67
2023-05-20T10:42:13.168Z,48.33
2023-05-20T10:44:16.461Z,48.03
2023-05-20T10:46:31.192Z,48.36
2023-05-20T10:48:44.320Z,48.25
2023-05-20T10:50:47.891Z,47.43
2023-05-20T10:52:51.388Z,46.45
2023-05-20T10:54:57.794Z,47.30
2023-05-20T10:57:01.594Z,47.74
2023-05-20T10:59:05.729Z,47.88
2023-05-20T11:01:09.178Z,47.56
2023-05-20T11:03:15.449Z,47.91
2023-05-20T11:05:19.447Z,48.56
2023-05-20T11:07:29.546Z,48.88
2023-05-20T11:09:34.027Z,49.37
2023-05-20T11:11:38.745Z,49.62
2023-05-20T11:13:42.414Z,50.16
2023-05-20T11:15:45.828Z,50.55
2023-05-20T11:17:55.975Z,50.30
2023-05-20T11:20:01.584Z,50.46
2023-05-20T11:22:09.091Z,51.29
2023-05-20T11:24:12.734Z,51.04
2023-05-20T11:26:16.197Z,51.21
2023-05-20T11:28:21.446Z,51.20
2023-05-20T11:30:25.071Z,50.62
2023-05-20T11:32:28.765Z,50.03
2023-05-20T11:34:36.497Z,50.20
2023-05-20T11:36:43.777Z,50.46
2023-05-20T11:38:48.120Z,51.08
2023-05-20T11:40:54.427Z,50.59
2023-05-20T11:42:59.278Z,50.41
2023-05-20T11:45:02.851Z,50.56
2023-05-20T11:47:06.741Z,50.75
2023-05-20T11:49:10.082Z,50.21
2023-05-20T11:51:14.779Z,50.80
2023-05-20T11:53:20.948Z,50.30
2023-05-20T11:55:24.364Z,50.29
2023-05-20T11:57:27.770Z,50.55
2023-05-20T11:59:31.221Z,50.53
2023-05-20T12:01:37.778Z,50.33
2023-05-20T12:03:41.358Z,50.13
2023-05-20T12:05:44.930Z,50.16
2023-05-20T12:07:48.236Z,50.99
2023-05-20T12:09:53.230Z,51.09
2023-05-20T12:11:57.191Z,52.09
2023-05-20T12:14:00.749Z,52.25
2023-05-20T12:16:06.044Z,52.83
2023-05-20T12:18:10.141Z,52.95
2023-05-20T12:20:15.318Z,53.02
2023-05-20T12:22:18.679Z,53.48
2023-05-20T12:24:22.050Z,53.95
2023-05-20T12:26:28.095Z,53.73
2023-05-20T12:28:32.242Z,53.97
2023-05-20T12:30:36.003Z,54.54
2023-05-20T12:32:39.862Z,54.53
2023-05-20T12:34:43.211Z,54.63
2023-05-20T12:36:47.235Z,55.07
2023-05-20T12:38:50.622Z,54.58
2023-05-20T12:40:53.947Z,54.54
2023-05-20T12:42:59.151Z,54.70
2023-05-20T12:45:02.453Z,54.96
2023-05-20T12:47:06.331Z,54.91
2023-05-20T12:49:09.774Z,55.04
2023-05-20T12:51:13.135Z,55.33
2023-05-20T12:53:16.568Z,55.40
2023-05-20T12:55:20.029Z,55.01
2023-05-20T12:57:23.579Z,55.18
2023-05-20T12:59:28.337Z,55.31
2023-05-20T13:01:31.911Z,55.65
2023-05-20T13:03:35.392Z,55.87
2023-05-20T13:05:38.996Z,56.05
2023-05-20T13:07:42.392Z,55.73
2023-05-20T13:09:46.281Z,55.21
2023-05-20T13:11:49.661Z,55.16
2023-05-20T13:13:53.170Z,55.13
2023-05-20T13:15:57.905Z,55.38
2023-05-20T13:18:03.450Z,55.29
2023-05-20T13:20:08.653Z,55.94
2023-05-20T13:22:12.028Z,55.35
2023-05-20T13:24:15.436Z,55.05
2023-05-20T13:26:18.871Z,54.56
2023-05-20T13:28:22.522Z,54.44
2023-05-20T13:30:26.008Z,53.90
2023-05-20T13:32:30.946Z,54.27
2023-05-20T13:34:34.334Z,54.07
2023-05-20T13:36:37.707Z,53.92
2023-05-20T13:38:41.276Z,54.19
2023-05-20T13:40:44.658Z,54.06
2023-05-20T13:42:48.200Z,53.37
2023-05-20T13:44:51.738Z,53.73
2023-05-20T13:46:55.121Z,53.58
2023-05-20T13:48:59.949Z,53.94
2023-05-20T13:51:03.278Z,53.30
2023-05-20T13:53:06.634Z,53.35
2023-05-20T13:55:10.932Z,53.02
2023-05-20T13:57:14.301Z,52.50
2023-05-20T13:59:17.725Z,52.86
2023-05-20T14:01:21.100Z,52.93
2023-05-20T14:03:24.513Z,53.31
2023-05-20T14:05:29.302Z,53.49
2023-05-20T14:07:32.695Z,54.41
2023-05-20T14:09:36.487Z,54.10
2023-05-20T14:11:39.879Z,54.15
2023-05-20T14:13:44.556Z,54.11
2023-05-20T14:15:47.999Z,53.54
2023-05-20T14:17:51.901Z,53.93
2023-05-20T14:19:55.608Z,53.75
2023-05-20T14:22:01.357Z,53.36
2023-05-20T14:24:04.957Z,53.27
2023-05-20T14:26:08.363Z,53.95
2023-05-20T14:28:11.657Z,53.74
2023-05-20T14:30:15.231Z,54.07
2023-05-20T14:32:18.695Z,54.36
2023-05-20T14:34:22.488Z,54.70
2023-05-20T14:36:25.990Z,54.66
2023-05-20T14:38:31.401Z,54.88
2023-05-20T14:40:34.979Z,54.89
2023-05-20T14:42:38.585Z,54.95
2023-05-20T14:44:42.038Z,55.54
2023-05-20T14:46:45.484Z,55.77
2023-05-20T14:48:48.856Z,56.19
2023-05-20T14:50:52.443Z,56.31
2023-05-20T14:52:55.909Z,56.59
2023-05-20T14:55:00.628Z,55.61
2023-05-20T14:57:04.134Z,55.58
2023-05-20T14:59:09.906Z,55.39
2023-05-20T15:01:13.740Z,55.29
2023-05-20T15:03:17.318Z,55.57
2023-05-20T15:05:20.923Z,55.73
2023-05-20T15:07:24.269Z,56.15
2023-05-20T15:09:27.987Z,56.33
2023-05-20T15:11:33.055Z,56.33
2023-05-20T15:13:38.970Z,56.65
2023-05-20T15:15:43.634Z,56.32
2023-05-20T15:17:47.245Z,57.05
2023-05-20T15:19:50.666Z,57.07
2023-05-20T15:21:54.977Z,57.40
2023-05-20T15:23:58.880Z,57.37
2023-05-20T15:26:02.416Z,57.25
2023-05-20T15:28:07.199Z,57.85
2023-05-20T15:30:11.546Z,57.54
2023-05-20T15:32:14.899Z,58.26
2023-05-20T15:34:19.721Z,58.31
2023-05-20T15:36:23.226Z,58.01
2023-05-20T15:38:26.649Z,57.94
2023-05-20T15:40:30.048Z,57.80
2023-05-20T15:42:33.410Z,57.89
2023-05-20T15:44:38.561Z,57.75
2023-05-20T15:46:41.945Z,57.61
2023-05-20T15:48:45.332Z,58.09
2023-05-20T15:50:48.825Z,57.77
2023-05-20T15:52:53.489Z,58.27
2023-05-20T15:54:56.850Z,58.05
2023-05-20T15:57:00.194Z,58.05
2023-05-20T15:59:03.547Z,57.98
2023-05-20T16:01:08.517Z,58.08
2023-05-20T16:03:11.996Z,57.94
2023-05-20T16:05:15.759Z,57.83
2023-05-20T16:07:19.108Z,58.13
2023-05-20T16:09:22.502Z,57.97
2023-05-20T16:11:25.850Z,57.43
2023-05-20T16:13:29.248Z,58.00
2023-05-20T16:15:36.425Z,57.89
2023-05-20T16:17:41.477Z,57.80
2023-05-20T16:19:44.974Z,57.90
2023-05-20T16:21:48.361Z,57.57
2023-05-20T16:23:52.725Z,57.88
2023-05-20T16:25:56.100Z,57.62
2023-05-20T16:28:01.089Z,57.77
2023-05-20T16:30:05.202Z,58.12
2023-05-20T16:32:08.885Z,58.75
2023-05-20T16:34:14.043Z,58.39
2023-05-20T16:36:17.454Z,58.57
2023-05-20T16:38:21.113Z,58.64
2023-05-20T16:40:24.453Z,58.85
2023-05-20T16:42:27.919Z,58.71
2023-05-20T16:44:31.341Z,58.91
2023-05-20T16:46:34.942Z,58.86
2023-05-20T16:48:38.327Z,58.64
2023-05-20T16:50:43.219Z,58.64
2023-05-20T16:52:46.579Z,58.57
2023-05-20T16:54:51.967Z,59.08
2023-05-20T16:56:55.575Z,58.96
2023-05-20T16:58:58.897Z,59.22
2023-05-20T17:01:02.588Z,59.06
2023-05-20T17:03:06.118Z,59.02
2023-05-20T17:05:10.694Z,59.33
2023-05-20T17:07:15.586Z,59.59
2023-05-20T17:09:19.094Z,59.81
2023-05-20T17:11:22.631Z,59.58
2023-05-20T17:13:26.100Z,59.66
2023-05-20T17:15:29.458Z,60.22
2023-05-20T17:17:32.866Z,59.90
2023-05-20T17:19:36.344Z,60.32
2023-05-20T17:21:39.683Z,60.18
2023-05-20T17:23:44.432Z,60.20
2023-05-20T17:25:47.805Z,60.22
2023-05-20T17:27:51.217Z,60.30
2023-05-20T17:29:54.641Z,60.78
2023-05-20T17:31:57.940Z,60.78
2023-05-20T17:34:01.778Z,60.65
2023-05-20T17:36:05.678Z,60.81
2023-05-20T17:38:09.028Z,60.99
2023-05-20T17:40:15.022Z,61.05
2023-05-20T17:42:18.377Z,61.02
2023-05-20T17:44:21.772Z,61.17
2023-05-20T17:46:25.181Z,61.17
2023-05-20T17:48:28.601Z,61.25
2023-05-20T17:50:32.009Z,61.21
2023-05-20T17:52:35.461Z,61.43
2023-05-20T17:54:38.980Z,61.50
2023-05-20T17:56:45.455Z,61.29
2023-05-20T17:58:48.810Z,61.40
2023-05-20T18:00:52.328Z,61.45
2023-05-20T18:02:57.633Z,61.36
2023-05-20T18:05:01.195Z,61.68
2023-05-20T18:07:05.088Z,61.75
2023-05-20T18:09:08.572Z,61.46
2023-05-20T18:11:12.148Z,61.45
2023-05-20T18:13:16.947Z,61.75
2023-05-20T18:15:21.292Z,61.85
2023-05-20T18:17:24.786Z,61.72
2023-05-20T18:19:28.305Z,62.07
2023-05-20T18:21:31.755Z,62.19
2023-05-20T18:23:35.103Z,61.99
2023-05-20T18:25:40.453Z,62.13
2023-05-20T18:27:45.241Z,62.20
2023-05-20T18:29:50.611Z,61.93
2023-05-20T18:31:54.159Z,62.06
2023-05-20T18:33:57.534Z,62.01
2023-05-20T18:36:01.066Z,62.01
2023-05-20T18:38:04.458Z,62.29
2023-05-20T18:40:09.146Z,62.41
2023-05-20T18:42:12.512Z,62.33
2023-05-20T18:44:16.089Z,62.36
2023-05-20T18:46:21.025Z,62.01
2023-05-20T18:48:27.164Z,62.17
2023-05-20T18:50:30.843Z,62.04
2023-05-20T18:52:34.179Z,61.82
2023-05-20T18:54:37.576Z,61.65
2023-05-20T18:56:41.624Z,61.94
2023-05-20T18:58:44.951Z,61.51
2023-05-20T19:00:48.317Z,61.83
2023-05-20T19:02:53.147Z,61.57
2023-05-20T19:04:56.568Z,61.73
2023-05-20T19:07:00.880Z,61.94
2023-05-20T19:09:04.552Z,62.12
2023-05-20T19:11:07.872Z,61.73
2023-05-20T19:13:11.297Z,61.83
2023-05-20T19:15:15.822Z,61.76
2023-05-20T19:17:20.938Z,62.13
2023-05-20T19:19:26.118Z,62.26
2023-05-20T19:21:30.757Z,62.30
2023-05-20T19:23:34.102Z,62.17
2023-05-20T19:25:37.700Z,62.31
2023-05-20T19:27:41.396Z,62.63
2023-05-20T19:29:44.798Z,62.62
2023-05-20T19:31:48.149Z,62.70
2023-05-20T19:33:51.855Z,62.57
2023-05-20T19:35:57.806Z,62.94
2023-05-20T19:38:01.401Z,63.08
2023-05-20T19:40:05.302Z,63.05
2023-05-20T19:42:08.767Z,63.21
2023-05-20T19:44:12.087Z,63.18
2023-05-20T19:46:15.486Z,63.33
2023-05-20T19:48:21.338Z,63.56
2023-05-20T19:52:43.478Z,63.90
2023-05-20T19:54:46.889Z,63.86
2023-05-20T19:56:50.332Z,63.87
2023-05-20T19:58:53.731Z,64.04
2023-05-20T20:00:57.078Z,64.09
2023-05-20T20:03:03.178Z,63.93
2023-05-20T20:05:07.663Z,64.10
2023-05-20T20:07:11.140Z,64.29
2023-05-20T20:09:16.079Z,64.24
2023-05-20T20:11:19.515Z,64.50
2023-05-20T20:13:22.857Z,64.55
2023-05-20T20:15:27.165Z,64.78
2023-05-20T20:17:30.900Z,64.67
2023-05-20T20:19:34.286Z,64.81
2023-05-20T20:21:40.251Z,64.78
2023-05-20T20:23:44.007Z,65.21
2023-05-20T20:25:50.704Z,64.87
2023-05-20T20:27:54.168Z,65.13
2023-05-20T20:29:57.618Z,65.05
2023-05-20T20:32:01.161Z,65.41
2023-05-20T20:34:04.598Z,65.42
2023-05-20T20:36:08.967Z,65.29
2023-05-20T20:38:12.375Z,65.32
2023-05-20T20:40:16.509Z,65.24
2023-05-20T20:42:22.384Z,65.27
2023-05-20T20:44:26.704Z,65.33
2023-05-20T20:46:30.314Z,65.27
2023-05-20T20:48:34.614Z,65.33
2023-05-20T20:50:39.011Z,65.38
2023-05-20T20:52:42.802Z,65.42
2023-05-20T20:54:46.229Z,65.59
2023-05-20T20:56:50.222Z,65.59
2023-05-20T20:58:57.354Z,65.48
2023-05-20T21:01:00.738Z,65.50
2023-05-20T21:03:06.456Z,65.46
2023-05-20T21:05:10.515Z,65.43
2023-05-20T21:07:18.416Z,65.73
2023-05-20T21:09:22.543Z,65.30
2023-05-20T21:11:28.083Z,65.48
2023-05-20T21:13:31.807Z,65.61
2023-05-20T21:15:36.804Z,65.91
2023-05-20T21:17:40.374Z,65.74
2023-05-20T21:19:43.790Z,66.00
2023-05-20T21:21:47.229Z,66.08
2023-05-20T21:23:52.139Z,66.05
2023-05-20T21:25:55.493Z,66.13
2023-05-20T21:27:58.876Z,66.30
2023-05-20T21:30:02.360Z,66.34
2023-05-20T21:32:08.589Z,66.29
2023-05-20T21:34:12.837Z,66.51
2023-05-20T21:36:16.719Z,66.52
2023-05-20T21:38:20.099Z,66.62
2023-05-20T21:40:23.544Z,66.61
2023-05-20T21:42:27.815Z,66.84
2023-05-20T21:44:31.326Z,67.08
2023-05-20T21:46:35.194Z,66.89
2023-05-20T21:48:40.765Z,67.03
2023-05-20T21:50:44.561Z,67.06
2023-05-20T21:52:47.994Z,67.33
2023-05-20T21:54:51.797Z,67.40
2023-05-20T21:56:55.407Z,67.52
2023-05-20T21:58:58.922Z,67.49
2023-05-20T22:01:02.648Z,67.34
2023-05-20T22:03:06.371Z,67.47
2023-05-20T22:05:12.613Z,67.48
2023-05-20T22:07:16.348Z,67.49
2023-05-20T22:09:19.862Z,67.46
2023-05-20T22:11:24.082Z,67.69
2023-05-20T22:13:28.149Z,67.68
2023-05-20T22:15:31.890Z,67.83
2023-05-20T22:17:35.701Z,67.69
2023-05-20T22:19:40.250Z,67.77
2023-05-20T22:21:50.771Z,67.65
2023-05-20T22:23:54.998Z,67.87
2023-05-20T22:25:58.627Z,67.92
2023-05-20T22:28:04.697Z,67.88
2023-05-20T22:30:09.965Z,67.96
2023-05-20T22:32:18.988Z,68.07
2023-05-20T22:34:22.449Z,68.16
2023-05-20T22:36:25.870Z,68.31
2023-05-20T22:38:30.915Z,68.47
2023-05-20T22:40:34.808Z,68.42
2023-05-20T22:42:38.177Z,68.58
2023-05-20T22:44:41.539Z,68.55
2023-05-20T22:46:44.914Z,68.66
2023-05-20T22:48:48.357Z,68.60
2023-05-20T22:50:54.109Z,68.50
2023-05-20T22:52:57.610Z,68.48
2023-05-20T22:55:02.431Z,68.62
2023-05-20T22:57:06.195Z,68.76
2023-05-20T22:59:09.544Z,68.64
2023-05-20T23:01:13.372Z,68.53
2023-05-20T23:03:16.936Z,68.63
2023-05-20T23:05:20.487Z,68.98
2023-05-20T23:07:23.886Z,68.83
2023-05-20T23:09:27.262Z,68.88
2023-05-20T23:11:32.029Z,68.98
2023-05-20T23:13:35.430Z,68.88
2023-05-20T23:15:48.019Z,68.90
2023-05-20T23:17:52.134Z,68.93
2023-05-20T23:19:55.646Z,68.82
2023-05-20T23:21:58.920Z,68.87
2023-05-20T23:24:02.215Z,68.81
2023-05-20T23:26:05.624Z,68.79
2023-05-20T23:28:10.293Z,68.72
2023-05-20T23:30:13.801Z,68.74
2023-05-20T23:32:17.048Z,68.91
2023-05-20T23:34:20.263Z,68.99
2023-05-20T23:36:23.507Z,69.18
2023-05-20T23:38:26.821Z,69.16
2023-05-20T23:40:30.172Z,69.04
2023-05-20T23:42:33.369Z,69.04
2023-05-20T23:44:37.990Z,69.15
2023-05-20T23:46:41.833Z,69.12
2023-05-20T23:48:45.365Z,69.12
2023-05-20T23:50:48.957Z,69.24
2023-05-20T23:52:52.341Z,69.18
2023-05-20T23:54:56.355Z,69.34
2023-05-20T23:56:59.654Z,69.45
2023-05-20T23:59:02.877Z,69.46
